createdAt,value
2023-01-29T00:01:47.759Z,103220.22
2023-01-29T00:04:14.509Z,103221.22
2023-01-29T00:06:40.944Z,103219.53
2023-01-29T00:09:07.397Z,103209.25
2023-01-29T00:11:33.794Z,103202.28
2023-01-29T00:14:00.187Z,103198.97
2023-01-29T00:16:26.628Z,103195.69
2023-01-29T00:18:53.130Z,103192.19
2023-01-29T00:21:24.640Z,103184.22
2023-01-29T00:23:51.300Z,103178.13
2023-01-29T00:26:17.817Z,103174.63
2023-01-29T00:28:44.530Z,103165.69
2023-01-29T00:31:13.180Z,103167.38
2023-01-29T00:33:40.295Z,103172.66
2023-01-29T00:36:09.399Z,103172.81
2023-01-29T00:38:37.237Z,103174.78
2023-01-29T00:41:26.799Z,103180.59
2023-01-29T00:44:11.643Z,103181.59
2023-01-29T00:46:38.213Z,103179.78
2023-01-29T00:49:06.722Z,103176.59
2023-01-29T00:51:33.085Z,103177.44
2023-01-29T00:53:59.845Z,103174.94
2023-01-29T00:56:30.231Z,103166.84
2023-01-29T00:58:57.102Z,103163.34
2023-01-29T01:01:42.748Z,103161.69
2023-01-29T01:04:10.997Z,103159.91
2023-01-29T01:06:38.525Z,103164.88
2023-01-29T01:09:24.440Z,103165.56
2023-01-29T01:11:51.768Z,103170.00
2023-01-29T01:14:20.117Z,103161.25
2023-01-29T01:16:47.889Z,103162.25
2023-01-29T01:19:15.358Z,103158.75
2023-01-29T01:21:45.353Z,103152.63
2023-01-29T01:24:13.157Z,103146.66
2023-01-29T01:26:39.816Z,103153.63
2023-01-29T01:29:06.850Z,103157.75
2023-01-29T01:31:33.459Z,103160.25
2023-01-29T01:33:59.945Z,103163.06
2023-01-29T01:36:26.352Z,103163.72
2023-01-29T01:38:52.828Z,103164.53
2023-01-29T01:41:21.808Z,103164.53
2023-01-29T01:43:58.498Z,103163.56
2023-01-29T01:46:28.540Z,103162.56
2023-01-29T01:49:00.487Z,103165.22
2023-01-29T01:51:28.936Z,103165.56
2023-01-29T01:54:01.969Z,103158.75
2023-01-29T01:56:38.359Z,103168.22
2023-01-29T01:59:09.645Z,103166.53
2023-01-29T02:01:38.241Z,103169.69
2023-01-29T02:04:26.499Z,103159.09
2023-01-29T02:07:12.926Z,103149.50
2023-01-29T02:09:46.242Z,103157.63
2023-01-29T02:12:15.929Z,103172.66
2023-01-29T02:14:43.524Z,103172.66
2023-01-29T02:17:14.210Z,103171.16
2023-01-29T02:20:02.332Z,103167.53
2023-01-29T02:22:55.066Z,103164.88
2023-01-29T02:25:40.539Z,103161.38
2023-01-29T02:28:14.098Z,103166.53
2023-01-29T02:30:47.522Z,103171.97
2023-01-29T02:33:26.289Z,103167.66
2023-01-29T02:36:04.602Z,103165.03
2023-01-29T02:38:46.655Z,103176.59
2023-01-29T02:41:26.521Z,103183.56
2023-01-29T02:43:57.388Z,103183.41
2023-01-29T02:46:37.255Z,103184.41
2023-01-29T02:49:06.643Z,103185.22
2023-01-29T02:52:12.172Z,103183.41
2023-01-29T02:54:47.395Z,103187.06
2023-01-29T02:57:21.796Z,103179.09
2023-01-29T02:59:58.542Z,103179.09
2023-01-29T03:02:33.380Z,103182.75
2023-01-29T03:05:05.990Z,103174.78
2023-01-29T03:07:42.301Z,103171.63
2023-01-29T03:10:18.131Z,103170.78
2023-01-29T03:12:49.854Z,103169.13
2023-01-29T03:15:25.007Z,103166.47
2023-01-29T03:17:57.343Z,103156.88
2023-01-29T03:20:32.000Z,103153.25
2023-01-29T03:23:06.357Z,103151.44
2023-01-29T03:25:54.631Z,103150.78
2023-01-29T03:28:40.636Z,103143.31
2023-01-29T03:31:30.557Z,103143.31
2023-01-29T03:34:05.274Z,103133.69
2023-01-29T03:36:45.543Z,103135.19
2023-01-29T03:39:13.743Z,103124.78
2023-01-29T03:41:53.576Z,103124.91
2023-01-29T03:44:33.585Z,103117.94
2023-01-29T03:47:17.132Z,103116.16
2023-01-29T03:49:55.429Z,103110.84
2023-01-29T03:52:28.925Z,103119.78
2023-01-29T03:55:42.979Z,103110.19
2023-01-29T03:58:23.664Z,103114.66
2023-01-29T04:00:56.896Z,103114.31
2023-01-29T04:03:32.946Z,103105.69
2023-01-29T04:06:05.451Z,103108.34
2023-01-29T04:08:35.785Z,103109.38
2023-01-29T04:11:10.294Z,103094.13
2023-01-29T04:13:38.031Z,103097.75
2023-01-29T04:16:08.265Z,103088.19
2023-01-29T04:18:34.767Z,103090.00
2023-01-29T04:21:01.347Z,103096.25
2023-01-29T04:23:27.984Z,103096.44
2023-01-29T04:26:07.177Z,103092.63
2023-01-29T04:29:10.818Z,103085.69
2023-01-29T04:31:51.598Z,103084.69
2023-01-29T04:34:43.949Z,103086.00
2023-01-29T04:37:22.965Z,103089.63
2023-01-29T04:39:59.818Z,103075.41
2023-01-29T04:42:57.983Z,103072.94
2023-01-29T04:45:43.545Z,103078.38
2023-01-29T04:48:23.201Z,103072.56
2023-01-29T04:50:59.510Z,103077.03
2023-01-29T04:53:52.553Z,103073.72
2023-01-29T04:56:46.813Z,103069.41
2023-01-29T04:59:19.243Z,103068.59
2023-01-29T05:01:47.176Z,103061.47
2023-01-29T05:04:16.465Z,103057.16
2023-01-29T05:06:46.513Z,103059.81
2023-01-29T05:09:15.703Z,103056.47
2023-01-29T05:11:44.245Z,103056.47
2023-01-29T05:14:14.677Z,103053.31
2023-01-29T05:16:49.467Z,103055.84
2023-01-29T05:19:17.147Z,103051.53
2023-01-29T05:21:47.429Z,103056.13
2023-01-29T05:24:19.516Z,103056.81
2023-01-29T05:27:07.704Z,103062.09
2023-01-29T05:29:34.248Z,103064.91
2023-01-29T05:32:01.198Z,103077.13
2023-01-29T05:34:27.805Z,103074.34
2023-01-29T05:36:54.196Z,103066.72
2023-01-29T05:39:21.114Z,103069.38
2023-01-29T05:41:47.623Z,103067.53
2023-01-29T05:44:13.978Z,103059.78
2023-01-29T05:46:40.424Z,103066.22
2023-01-29T05:49:06.791Z,103069.69
2023-01-29T05:51:33.139Z,103075.28
2023-01-29T05:53:59.531Z,103068.19
2023-01-29T05:56:25.994Z,103062.03
2023-01-29T05:58:52.749Z,103055.94
2023-01-29T06:01:22.508Z,103042.03
2023-01-29T06:03:49.071Z,103046.16
2023-01-29T06:06:16.129Z,103041.88
2023-01-29T06:08:43.134Z,103035.94
2023-01-29T06:11:11.965Z,103037.06
2023-01-29T06:13:38.686Z,103031.94
2023-01-29T06:16:06.834Z,103021.19
2023-01-29T06:18:33.711Z,103025.66
2023-01-29T06:21:02.571Z,103029.97
2023-01-29T06:23:29.811Z,103030.09
2023-01-29T06:26:04.714Z,103026.63
2023-01-29T06:28:31.175Z,103029.41
2023-01-29T06:31:21.054Z,103017.03
2023-01-29T06:33:48.983Z,103011.56
2023-01-29T06:36:15.321Z,103019.50
2023-01-29T06:38:41.664Z,103013.41
2023-01-29T06:41:12.663Z,103016.72
2023-01-29T06:43:39.699Z,103013.91
2023-01-29T06:46:08.360Z,103015.75
2023-01-29T06:48:35.206Z,103019.03
2023-01-29T06:51:06.308Z,103029.31
2023-01-29T06:53:33.656Z,103018.72
2023-01-29T06:56:00.075Z,103009.13
2023-01-29T06:58:26.642Z,103004.69
2023-01-29T07:00:53.100Z,103022.22
2023-01-29T07:03:19.672Z,103019.56
2023-01-29T07:05:52.957Z,103012.44
2023-01-29T07:08:22.536Z,103006.34
2023-01-29T07:10:49.864Z,103018.72
2023-01-29T07:13:16.583Z,103018.59
2023-01-29T07:15:44.401Z,103012.44
2023-01-29T07:18:14.201Z,103009.00
2023-01-29T07:20:41.679Z,103004.50
2023-01-29T07:23:12.869Z,103016.09
2023-01-29T07:25:40.135Z,103019.72
2023-01-29T07:28:07.056Z,103022.34
2023-01-29T07:30:33.975Z,103013.59
2023-01-29T07:33:08.756Z,103015.25
2023-01-29T07:35:40.052Z,103015.09
2023-01-29T07:38:07.605Z,103017.56
2023-01-29T07:40:34.285Z,103007.00
2023-01-29T07:43:02.267Z,103014.28
2023-01-29T07:45:29.986Z,102999.22
2023-01-29T07:47:57.261Z,103001.88
2023-01-29T07:50:25.408Z,102993.75
2023-01-29T07:52:52.172Z,102994.44
2023-01-29T07:55:18.581Z,102990.13
2023-01-29T07:57:44.969Z,102982.88
2023-01-29T08:00:12.725Z,102979.91
2023-01-29T08:02:39.907Z,102973.94
2023-01-29T08:05:06.636Z,102972.28
2023-01-29T08:07:33.047Z,102977.25
2023-01-29T08:09:59.428Z,102969.00
2023-01-29T08:12:25.884Z,102973.31
2023-01-29T08:14:52.256Z,102970.31
2023-01-29T08:17:18.649Z,102973.66
2023-01-29T08:19:45.033Z,102965.72
2023-01-29T08:22:11.394Z,102960.28
2023-01-29T08:24:53.253Z,102972.34
2023-01-29T08:27:24.206Z,102970.38
2023-01-29T08:29:50.592Z,102970.06
2023-01-29T08:32:17.026Z,102968.06
2023-01-29T08:34:43.389Z,102961.13
2023-01-29T08:37:09.767Z,102961.13
2023-01-29T08:39:36.160Z,102953.00
2023-01-29T08:42:02.497Z,102951.03
2023-01-29T08:44:29.376Z,102941.13
2023-01-29T08:46:55.790Z,102940.94
2023-01-29T08:49:22.197Z,102949.38
2023-01-29T08:51:48.636Z,102938.66
2023-01-29T08:54:15.070Z,102951.88
2023-01-29T08:56:41.435Z,102940.31
2023-01-29T08:59:07.840Z,102942.78
2023-01-29T09:01:34.284Z,102932.88
2023-01-29T09:04:00.654Z,102938.81
2023-01-29T09:06:27.069Z,102938.81
2023-01-29T09:08:53.479Z,102940.50
2023-01-29T09:11:19.856Z,102934.03
2023-01-29T09:13:46.202Z,102935.50
2023-01-29T09:16:12.707Z,102939.81
2023-01-29T09:18:39.050Z,102932.88
2023-01-29T09:21:05.767Z,102935.19
2023-01-29T09:23:32.795Z,102933.03
2023-01-29T09:25:59.300Z,102933.53
2023-01-29T09:28:26.019Z,102942.13
2023-01-29T09:30:52.593Z,102943.63
2023-01-29T09:33:19.184Z,102931.88
2023-01-29T09:35:47.023Z,102942.16
2023-01-29T09:38:14.181Z,102941.81
2023-01-29T09:41:06.894Z,102936.50
2023-01-29T09:43:45.882Z,102932.22
2023-01-29T09:46:43.292Z,102940.31
2023-01-29T09:49:41.665Z,102934.03
2023-01-29T09:52:20.403Z,102929.25
2023-01-29T09:55:01.932Z,102933.53
2023-01-29T09:57:38.836Z,102932.22
2023-01-29T10:00:05.957Z,102928.25
2023-01-29T10:03:02.031Z,102930.72
2023-01-29T10:05:40.806Z,102933.22
2023-01-29T10:08:29.577Z,102929.41
2023-01-29T10:11:23.939Z,102925.44
2023-01-29T10:14:14.771Z,102916.63
2023-01-29T10:17:12.246Z,102918.94
2023-01-29T10:19:48.961Z,102915.47
2023-01-29T10:22:41.961Z,102913.00
2023-01-29T10:25:21.351Z,102916.63
2023-01-29T10:27:51.829Z,102913.16
2023-01-29T10:30:21.837Z,102913.00
2023-01-29T10:32:50.038Z,102898.09
2023-01-29T10:35:28.421Z,102900.91
2023-01-29T10:37:58.945Z,102888.47
2023-01-29T10:40:43.842Z,102879.53
2023-01-29T10:43:19.586Z,102886.31
2023-01-29T10:45:57.240Z,102881.84
2023-01-29T10:48:36.912Z,102875.22
2023-01-29T10:52:00.588Z,102867.09
2023-01-29T10:55:03.093Z,102856.16
2023-01-29T10:57:59.221Z,102857.97
2023-01-29T11:00:30.449Z,102857.59
2023-01-29T11:02:57.044Z,102850.66
2023-01-29T11:05:34.312Z,102843.34
2023-01-29T11:08:07.184Z,102850.97
2023-01-29T11:10:41.664Z,102842.66
2023-01-29T11:13:14.041Z,102840.69
2023-01-29T11:15:40.514Z,102838.19
2023-01-29T11:18:15.657Z,102827.41
2023-01-29T11:20:44.477Z,102836.19
2023-01-29T11:23:26.941Z,102831.72
2023-01-29T11:25:55.534Z,102830.53
2023-01-29T11:28:42.171Z,102834.66
2023-01-29T11:31:35.128Z,102821.75
2023-01-29T11:34:16.576Z,102825.56
2023-01-29T11:36:44.867Z,102813.63
2023-01-29T11:39:20.043Z,102816.09
2023-01-29T11:41:49.364Z,102809.81
2023-01-29T11:44:39.732Z,102805.69
2023-01-29T11:47:27.470Z,102803.69
2023-01-29T11:50:00.600Z,102797.53
2023-01-29T11:52:36.314Z,102801.19
2023-01-29T11:55:15.888Z,102804.50
2023-01-29T11:57:46.480Z,102801.84
2023-01-29T12:00:25.359Z,102797.22
2023-01-29T12:03:01.387Z,102784.13
2023-01-29T12:05:27.951Z,102774.69
2023-01-29T12:08:00.379Z,102787.94
2023-01-29T12:10:37.141Z,102783.81
2023-01-29T12:13:19.778Z,102769.38
2023-01-29T12:15:47.972Z,102760.75
2023-01-29T12:18:30.406Z,102753.84
2023-01-29T12:21:03.065Z,102753.84
2023-01-29T12:23:56.121Z,102746.50
2023-01-29T12:26:33.759Z,102739.19
2023-01-29T12:29:35.637Z,102740.69
2023-01-29T12:32:23.825Z,102731.56
2023-01-29T12:35:12.637Z,102722.75
2023-01-29T12:38:03.096Z,102720.66
2023-01-29T12:40:34.139Z,102717.66
2023-01-29T12:43:07.058Z,102718.13
2023-01-29T12:45:36.541Z,102706.34
2023-01-29T12:48:08.637Z,102700.84
2023-01-29T12:50:37.555Z,102702.19
2023-01-29T12:53:25.675Z,102694.25
2023-01-29T12:56:02.892Z,102683.09
2023-01-29T12:58:35.148Z,102679.63
2023-01-29T13:01:10.921Z,102663.25
2023-01-29T13:04:01.490Z,102650.66
2023-01-29T13:06:33.508Z,102643.69
2023-01-29T13:09:11.980Z,102641.03
2023-01-29T13:12:00.489Z,102631.44
2023-01-29T13:14:42.282Z,102630.44
2023-01-29T13:17:18.387Z,102608.38
2023-01-29T13:19:49.513Z,102603.06
2023-01-29T13:22:23.129Z,102594.78
2023-01-29T13:25:03.613Z,102591.38
2023-01-29T13:27:33.815Z,102576.78
2023-01-29T13:30:00.956Z,102572.22
2023-01-29T13:32:30.065Z,102578.97
2023-01-29T13:35:13.443Z,102576.81
2023-01-29T13:37:50.013Z,102574.16
2023-01-29T13:40:24.325Z,102564.16
2023-01-29T13:42:54.054Z,102567.47
2023-01-29T13:45:22.040Z,102568.09
2023-01-29T13:47:49.952Z,102567.75
2023-01-29T13:50:42.401Z,102567.41
2023-01-29T13:53:21.725Z,102564.56
2023-01-29T13:55:48.116Z,102557.78
2023-01-29T13:58:43.320Z,102557.41
2023-01-29T14:01:09.767Z,102558.03
2023-01-29T14:04:06.142Z,102556.88
2023-01-29T14:06:40.383Z,102562.19
2023-01-29T14:09:31.033Z,102559.34
2023-01-29T14:11:57.546Z,102559.34
2023-01-29T14:14:49.084Z,102554.66
2023-01-29T14:17:17.320Z,102546.34
2023-01-29T14:19:59.183Z,102538.00
2023-01-29T14:22:32.085Z,102539.66
2023-01-29T14:25:03.377Z,102528.22
2023-01-29T14:27:30.903Z,102543.31
2023-01-29T14:30:18.827Z,102541.13
2023-01-29T14:32:51.425Z,102537.28
2023-01-29T14:35:22.840Z,102525.44
2023-01-29T14:37:57.505Z,102523.63
2023-01-29T14:40:26.022Z,102516.69
2023-01-29T14:42:55.147Z,102514.03
2023-01-29T14:45:32.432Z,102521.16
2023-01-29T14:48:11.035Z,102513.03
2023-01-29T14:50:37.778Z,102517.50
2023-01-29T14:53:19.550Z,102506.06
2023-01-29T14:56:10.423Z,102517.03
2023-01-29T14:58:56.254Z,102506.78
2023-01-29T15:01:39.517Z,102504.97
2023-01-29T15:04:15.975Z,102497.38
2023-01-29T15:06:52.965Z,102490.06
2023-01-29T15:09:42.678Z,102489.03
2023-01-29T15:12:26.452Z,102476.59
2023-01-29T15:15:05.840Z,102477.41
2023-01-29T15:18:16.116Z,102475.78
2023-01-29T15:20:43.441Z,102468.97
2023-01-29T15:23:31.746Z,102480.25
2023-01-29T15:26:01.940Z,102482.91
2023-01-29T15:28:33.387Z,102480.06
2023-01-29T15:31:02.338Z,102488.22
2023-01-29T15:33:28.992Z,102482.91
2023-01-29T15:36:06.929Z,102477.94
2023-01-29T15:38:34.310Z,102455.28
2023-01-29T15:41:03.615Z,102463.44
2023-01-29T15:43:37.100Z,102462.78
2023-01-29T15:46:14.394Z,102454.81
2023-01-29T15:48:43.460Z,102449.69
2023-01-29T15:51:15.969Z,102456.84
2023-01-29T15:54:15.773Z,102448.06
2023-01-29T15:56:51.688Z,102445.41
2023-01-29T15:59:22.326Z,102452.72
2023-01-29T16:01:48.807Z,102442.13
2023-01-29T16:04:20.898Z,102430.00
2023-01-29T16:06:47.995Z,102448.59
2023-01-29T16:09:26.199Z,102453.28
2023-01-29T16:11:57.399Z,102460.59
2023-01-29T16:14:25.676Z,102465.06
2023-01-29T16:16:52.921Z,102466.06
2023-01-29T16:19:27.890Z,102454.22
2023-01-29T16:22:03.543Z,102455.78
2023-01-29T16:24:32.281Z,102450.19
2023-01-29T16:27:10.963Z,102461.16
2023-01-29T16:29:38.910Z,102459.88
2023-01-29T16:32:06.172Z,102463.34
2023-01-29T16:34:37.649Z,102452.09
2023-01-29T16:37:07.315Z,102461.91
2023-01-29T16:39:38.253Z,102440.19
2023-01-29T16:42:12.193Z,102427.31
2023-01-29T16:44:40.243Z,102421.38
2023-01-29T16:47:15.343Z,102430.53
2023-01-29T16:49:49.735Z,102433.34
2023-01-29T16:52:31.283Z,102428.03
2023-01-29T16:55:15.281Z,102424.59
2023-01-29T16:57:44.109Z,102423.94
2023-01-29T17:00:20.821Z,102424.28
2023-01-29T17:02:50.564Z,102414.88
2023-01-29T17:05:26.164Z,102420.34
2023-01-29T17:07:55.459Z,102424.22
2023-01-29T17:10:22.039Z,102432.50
2023-01-29T17:12:55.640Z,102421.25
2023-01-29T17:15:42.962Z,102425.94
2023-01-29T17:18:20.095Z,102420.47
2023-01-29T17:20:47.348Z,102412.69
2023-01-29T17:23:13.870Z,102413.50
2023-01-29T17:25:40.948Z,102403.25
2023-01-29T17:28:07.643Z,102407.75
2023-01-29T17:30:37.132Z,102400.00
2023-01-29T17:33:17.875Z,102410.59
2023-01-29T17:35:45.417Z,102411.59
2023-01-29T17:38:24.965Z,102405.66
2023-01-29T17:41:11.752Z,102405.81
2023-01-29T17:43:38.276Z,102398.84
2023-01-29T17:46:04.711Z,102388.25
2023-01-29T17:48:31.825Z,102377.84
2023-01-29T17:51:04.436Z,102378.03
2023-01-29T17:53:45.358Z,102367.91
2023-01-29T17:56:17.741Z,102368.91
2023-01-29T17:58:44.560Z,102360.28
2023-01-29T18:01:10.966Z,102359.28
2023-01-29T18:03:37.386Z,102352.34
2023-01-29T18:06:07.683Z,102358.66
2023-01-29T18:08:36.797Z,102345.41
2023-01-29T18:11:03.342Z,102349.53
2023-01-29T18:13:29.744Z,102347.69
2023-01-29T18:15:56.110Z,102340.53
2023-01-29T18:18:24.049Z,102331.59
2023-01-29T18:20:50.976Z,102335.09
2023-01-29T18:23:17.546Z,102334.06
2023-01-29T18:25:44.798Z,102341.03
2023-01-29T18:28:19.202Z,102332.22
2023-01-29T18:30:47.236Z,102334.72
2023-01-29T18:33:14.290Z,102317.81
2023-01-29T18:35:40.761Z,102309.03
2023-01-29T18:38:07.112Z,102312.13
2023-01-29T18:40:33.514Z,102305.81
2023-01-29T18:43:00.873Z,102297.88
2023-01-29T18:45:28.601Z,102285.44
2023-01-29T18:47:55.605Z,102274.66
2023-01-29T18:50:26.207Z,102258.75
2023-01-29T18:52:53.619Z,102269.16
2023-01-29T18:55:20.847Z,102278.75
2023-01-29T18:58:24.929Z,102258.53
2023-01-29T19:00:33.879Z,102258.38
2023-01-29T19:03:00.741Z,102251.44
2023-01-29T19:05:27.214Z,102248.78
2023-01-29T19:07:53.751Z,102237.97
2023-01-29T19:10:20.179Z,102230.84
2023-01-29T19:12:46.665Z,102230.00
2023-01-29T19:15:13.064Z,102220.41
2023-01-29T19:17:39.487Z,102225.72
2023-01-29T19:20:06.394Z,102225.56
2023-01-29T19:22:32.781Z,102208.00
2023-01-29T19:24:59.260Z,102227.38
2023-01-29T19:27:30.157Z,102229.84
2023-01-29T19:29:57.972Z,102228.84
2023-01-29T19:32:24.343Z,102222.50
2023-01-29T19:34:51.049Z,102211.91
2023-01-29T19:37:17.474Z,102213.53
2023-01-29T19:39:43.861Z,102211.72
2023-01-29T19:42:10.279Z,102213.38
2023-01-29T19:44:38.865Z,102204.41
2023-01-29T19:47:05.501Z,102198.28
2023-01-29T19:49:33.927Z,102219.50
2023-01-29T19:52:01.121Z,102201.75
2023-01-29T19:54:28.124Z,102217.47
2023-01-29T19:56:54.721Z,102189.16
2023-01-29T19:59:21.409Z,102198.91
2023-01-29T20:01:47.950Z,102191.78
2023-01-29T20:04:14.399Z,102193.59
2023-01-29T20:06:40.957Z,102196.06
2023-01-29T20:09:07.326Z,102198.53
2023-01-29T20:11:33.836Z,102191.41
2023-01-29T20:14:00.191Z,102186.94
2023-01-29T20:16:26.816Z,102183.44
2023-01-29T20:18:53.225Z,102183.44
2023-01-29T20:21:21.903Z,102185.91
2023-01-29T20:23:50.171Z,102181.25
2023-01-29T20:26:17.836Z,102186.56
2023-01-29T20:28:48.048Z,102171.47
2023-01-29T20:31:15.461Z,102175.75
2023-01-29T20:33:42.083Z,102171.25
2023-01-29T20:36:10.378Z,102157.81
2023-01-29T20:38:37.064Z,102153.16
2023-01-29T20:41:06.569Z,102175.19
2023-01-29T20:43:33.688Z,102191.72
2023-01-29T20:46:00.919Z,102176.00
2023-01-29T20:48:27.483Z,102173.97
2023-01-29T20:50:54.224Z,102164.19
2023-01-29T20:53:20.739Z,102164.19
2023-01-29T20:55:47.228Z,102176.44
2023-01-29T20:58:13.860Z,102177.09
2023-01-29T21:00:40.233Z,102164.63
2023-01-29T21:03:06.609Z,102164.25
2023-01-29T21:05:32.968Z,102166.72
2023-01-29T21:07:59.313Z,102154.91
2023-01-29T21:10:25.666Z,102152.06
2023-01-29T21:12:52.124Z,102157.16
2023-01-29T21:15:18.552Z,102173.72
2023-01-29T21:17:47.983Z,102177.00
2023-01-29T21:20:14.925Z,102166.19
2023-01-29T21:22:43.801Z,102156.22
2023-01-29T21:25:11.281Z,102160.34
2023-01-29T21:27:37.837Z,102168.28
2023-01-29T21:30:04.827Z,102175.03
2023-01-29T21:32:36.206Z,102160.38
2023-01-29T21:35:02.725Z,102152.84
2023-01-29T21:37:29.301Z,102155.09
2023-01-29T21:39:55.681Z,102160.66
2023-01-29T21:42:40.675Z,102157.63
2023-01-29T21:45:07.779Z,102174.81
2023-01-29T21:47:34.174Z,102131.94
2023-01-29T21:50:00.564Z,102111.31
2023-01-29T21:52:27.031Z,102111.97
2023-01-29T21:54:53.426Z,102086.66
2023-01-29T21:57:19.908Z,102080.13
2023-01-29T21:59:52.478Z,102066.88
2023-01-29T22:02:21.092Z,102053.81
2023-01-29T22:04:47.516Z,102039.72
2023-01-29T22:07:14.397Z,102037.28
2023-01-29T22:09:40.992Z,102034.63
2023-01-29T22:12:08.508Z,102036.88
2023-01-29T22:14:34.944Z,102022.38
2023-01-29T22:17:01.396Z,102049.75
2023-01-29T22:19:29.340Z,102069.97
2023-01-29T22:21:56.171Z,102045.06
2023-01-29T22:24:23.463Z,102037.72
2023-01-29T22:26:50.016Z,102028.72
2023-01-29T22:29:19.594Z,102022.41
2023-01-29T22:31:46.421Z,102017.91
2023-01-29T22:34:14.266Z,102030.16
2023-01-29T22:36:40.699Z,102022.81
2023-01-29T22:39:10.382Z,102020.78
2023-01-29T22:41:36.841Z,102014.47
2023-01-29T22:44:03.757Z,102008.94
2023-01-29T22:46:30.505Z,102001.59
2023-01-29T22:48:57.170Z,101989.75
2023-01-29T22:51:23.559Z,101985.88
2023-01-29T22:53:51.017Z,101981.38
2023-01-29T22:56:18.249Z,101976.47
2023-01-29T22:58:45.092Z,101979.56
2023-01-29T23:01:11.606Z,101973.03
2023-01-29T23:03:38.146Z,102002.25
2023-01-29T23:06:04.607Z,102002.88
2023-01-29T23:08:33.230Z,101989.16
2023-01-29T23:11:13.697Z,101980.78
2023-01-29T23:13:45.642Z,101986.34
2023-01-29T23:16:13.614Z,101978.97
2023-01-29T23:18:40.783Z,101977.97
2023-01-29T23:21:07.827Z,101961.81
2023-01-29T23:23:36.424Z,101979.38
2023-01-29T23:26:23.447Z,101958.75
2023-01-29T23:28:50.148Z,101960.16
2023-01-29T23:31:16.704Z,101949.13
2023-01-29T23:33:43.281Z,101936.88
2023-01-29T23:36:09.912Z,101914.19
2023-01-29T23:38:36.409Z,101916.22
2023-01-29T23:41:02.797Z,101927.03
2023-01-29T23:43:30.230Z,101913.72
2023-01-29T23:45:57.062Z,101895.56
2023-01-29T23:48:24.222Z,101898.00
2023-01-29T23:50:51.211Z,101915.34
2023-01-29T23:53:18.052Z,101911.69
2023-01-29T23:55:54.885Z,101910.88
2023-01-29T23:58:21.248Z,101906.56
